Kismet, KS

1:17 AM CST on March 03, 2015 (GMT -0600)
Country | Change Station
CLOSE
Current Station
Personal Weather Station
Location: Kismet, KS
Elevation: 2791 ft
Nearby Weather Stations

Elev 2791 ft 37.26 °N, 100.91 °W | Updated 14 seconds ago

Clear
Clear
35.9 °F
Feels Like 29 °F
N
10.0
Wind Variable Wind from WSW
Gusts 17.0 mph

Today
High -- | Low -- °F
--% Chance of Precip.
Yesterday
High -- | Low -- °F
Precip. -- in
7:11 AM 6:38 PM
Waxing Gibbous, 95% visible
Pressure 29.75 in
Visibility 7.0 miles
Clouds Clear
Windchill 29 °F
Dew Point 34 °F
Humidity 91%
Rainfall 0.00 in
Snow Depth Not available.
UV 0 out of 12
Pollen 1.20 out of 12
Air Quality Not available.
Flu Activity Not available.
METAR KLBL 030655Z AUTO 20015KT 7SM CLR 02/M01 A2975 RMK AO1

More Conditions Fewer Conditions

Pressure 29.75 in
Visibility 7.0 miles
Clouds Clear
Windchill 29 °F
Dew Point 34 °F
Humidity 91%
Rainfall 0.00 in
Snow Depth Not available.
UV 0 out of 12
Pollen 1.20 out of 12
Air Quality Not available.
Flu Activity Not available.
METAR KLBL 030655Z AUTO 20015KT 7SM CLR 02/M01 A2975 RMK AO1

More Conditions Fewer Conditions

10-Day Weather Forecast

Almanac

Astronomy

Mar. 03, 2015 Rise Set
Actual Time
Civil Twilight
Nautical Twilight
Astronomical Twilight
Moon
Length of Visible Light
Length of Day
Tomorrow will be .
, % of the Moon is Illuminated

Today's Extremes

State Highs State Lows

Community

WunderPhotos

Upload Photos

1,802,073 photos uploaded!

WunderBlogs® & News

Nearby

Air Quality

  Air Quality AQ Index Pollutant
Not available.

Snow Depth

Station Depth Elevation

Earthquake Activity

City Distance Mag. Time & Date
Minimum magnitude displayed is 2.5.

Coastal Water Temperatures

Place Temperature

Nearby Weather Stations